Time;durP1;ratioP1;P1;durP2;ratioP2;P2;SDS_P1;SDS_P2;PMS_P1;PMS_P2;Temp;Humidity;BMP_temperature;BMP_pressure;BME280_temperature;BME280_humidity;BME280_pressure;Samples;Min_cycle;Max_cycle;Signal;HPM_P1;HPM_P2
2023/11/28 00:02:05;;;;;;;75.00;35.30;;;;;;;-2.63;70.40;97595.15;105339;1260;96588;-74
2023/11/28 00:04:33;;;;;;;65.90;33.20;;;;;;;-2.61;70.61;97588.81;105346;1257;96505;-74
2023/11/28 00:07:02;;;;;;;66.90;32.90;;;;;;;-2.58;70.56;97583.16;105191;1259;109714;-74
2023/11/28 00:09:29;;;;;;;74.80;33.40;;;;;;;-2.55;70.92;97582.33;105228;1257;96584;-73
2023/11/28 00:11:57;;;;;;;63.90;32.40;;;;;;;-2.53;70.66;97575.65;105065;1260;107660;-74
2023/11/28 00:14:25;;;;;;;65.40;33.10;;;;;;;-2.52;70.55;97574.77;104955;1260;97220;-75
2023/11/28 00:16:53;;;;;;;66.50;34.00;;;;;;;-2.53;70.48;97570.95;105260;1260;98082;-74
2023/11/28 00:19:21;;;;;;;66.10;34.80;;;;;;;-2.57;70.38;97574.07;105558;1260;108657;-73
2023/11/28 00:21:49;;;;;;;66.80;34.20;;;;;;;-2.57;70.56;97570.45;104769;1256;97396;-74
2023/11/28 00:24:17;;;;;;;65.40;32.30;;;;;;;-2.55;70.79;97571.76;104953;1260;107858;-74
2023/11/28 00:26:45;;;;;;;62.90;32.60;;;;;;;-2.60;70.69;97571.45;105367;1255;97625;-73
2023/11/28 00:29:12;;;;;;;65.50;34.00;;;;;;;-2.62;70.97;97571.85;105449;1258;96587;-73
2023/11/28 00:31:43;;;;;;;58.00;29.70;;;;;;;-2.62;70.81;97566.66;105192;1256;109942;-75
2023/11/28 00:34:11;;;;;;;59.40;30.90;;;;;;;-2.61;70.75;97566.60;105341;1258;97472;-73
2023/11/28 00:36:39;;;;;;;58.40;30.30;;;;;;;-2.63;70.91;97563.41;104967;1256;107623;-74
2023/11/28 00:39:07;;;;;;;59.40;29.30;;;;;;;-2.64;70.88;97564.30;105320;1260;96694;-73
2023/11/28 00:41:34;;;;;;;54.90;29.30;;;;;;;-2.62;70.91;97565.98;106713;1255;96598;-74
2023/11/28 00:44:02;;;;;;;57.40;29.60;;;;;;;-2.63;70.93;97562.73;105235;1255;110044;-74
2023/11/28 00:46:30;;;;;;;57.30;28.50;;;;;;;-2.63;71.28;97560.98;107344;1259;96644;-74
2023/11/28 00:48:58;;;;;;;57.60;27.50;;;;;;;-2.62;71.03;97557.46;106066;1259;108158;-75
2023/11/28 00:51:26;;;;;;;49.60;24.80;;;;;;;-2.58;70.94;97553.63;106153;1259;96508;-73
2023/11/28 00:53:54;;;;;;;52.00;27.60;;;;;;;-2.51;70.97;97546.95;104794;1258;97814;-74
2023/11/28 00:56:22;;;;;;;49.10;25.00;;;;;;;-2.49;71.07;97541.45;104552;1257;110524;-73
2023/11/28 00:58:50;;;;;;;53.00;25.40;;;;;;;-2.44;70.83;97538.46;104611;1271;96656;-73
2023/11/28 01:01:18;;;;;;;49.30;25.30;;;;;;;-2.41;70.99;97532.25;104493;1261;107704;-74
2023/11/28 01:03:47;;;;;;;51.50;24.50;;;;;;;-2.36;71.06;97533.43;107398;1258;96609;-74
2023/11/28 01:06:15;;;;;;;47.90;24.20;;;;;;;-2.31;71.22;97529.04;105581;1258;96853;-73
2023/11/28 01:08:43;;;;;;;45.40;25.40;;;;;;;-2.29;70.84;97527.86;105309;1258;110328;-74
2023/11/28 01:11:11;;;;;;;43.60;20.90;;;;;;;-2.29;70.98;97525.27;104687;1260;96707;-75
2023/11/28 01:13:39;;;;;;;45.30;23.50;;;;;;;-2.26;70.96;97524.29;105102;1259;108151;-74
2023/11/28 01:16:10;;;;;;;46.90;24.70;;;;;;;-2.23;71.16;97516.52;105249;1260;97953;-73
2023/11/28 01:18:38;;;;;;;50.40;24.30;;;;;;;-2.24;71.07;97516.71;105914;1260;96672;-74
2023/11/28 01:21:06;;;;;;;48.40;23.30;;;;;;;-2.25;71.15;97513.98;104976;1265;109980;-74
2023/11/28 01:23:34;;;;;;;45.60;22.90;;;;;;;-2.24;71.50;97508.54;105256;1258;96630;-73
2023/11/28 01:26:02;;;;;;;49.60;22.40;;;;;;;-2.22;71.52;97505.14;105068;1261;107664;-72
2023/11/28 01:28:30;;;;;;;46.30;22.10;;;;;;;-2.19;71.11;97502.06;104682;1260;97804;-74
2023/11/28 01:30:58;;;;;;;45.10;22.90;;;;;;;-2.16;71.33;97498.30;105344;1258;96606;-74
2023/11/28 01:33:26;;;;;;;46.90;24.20;;;;;;;-2.18;71.22;97500.46;105203;1257;109319;-76
2023/11/28 01:35:54;;;;;;;45.90;21.80;;;;;;;-2.17;71.11;97491.56;105054;1258;96611;-74
2023/11/28 01:38:22;;;;;;;43.60;23.00;;;;;;;-2.14;71.42;97486.05;105373;1256;107627;-74
2023/11/28 01:40:50;;;;;;;45.90;23.40;;;;;;;-2.14;71.10;97481.17;105090;1265;96774;-73
2023/11/28 01:43:28;;;;;;;45.30;23.70;;;;;;;-2.13;71.42;97477.50;104542;1261;96586;-74
2023/11/28 01:46:07;;;;;;;44.40;23.10;;;;;;;-2.14;71.41;97474.41;105462;1260;109544;-75
2023/11/28 01:48:35;;;;;;;42.80;21.90;;;;;;;-2.10;71.42;97466.78;105403;1258;96585;-74
2023/11/28 01:51:04;;;;;;;46.10;23.80;;;;;;;-2.09;71.32;97463.77;105312;1263;107623;-73
2023/11/28 01:53:32;;;;;;;42.70;22.20;;;;;;;-2.11;71.48;97462.95;105082;1258;96585;-74
2023/11/28 01:56:02;;;;;;;48.00;23.50;;;;;;;-2.09;71.29;97458.40;105266;1260;96606;-74
2023/11/28 01:58:30;;;;;;;46.50;22.10;;;;;;;-2.06;71.45;97460.84;105330;1260;108297;-73
2023/11/28 02:00:59;;;;;;;52.20;25.40;;;;;;;-2.07;71.45;97460.56;104665;1260;96593;-72
2023/11/28 02:03:28;;;;;;;46.00;24.50;;;;;;;-2.11;71.54;97459.83;104738;1260;107623;-72
2023/11/28 02:05:57;;;;;;;48.10;22.40;;;;;;;-2.13;71.35;97461.86;104731;1261;98108;-74
2023/11/28 02:08:26;;;;;;;45.30;21.90;;;;;;;-2.12;71.68;97456.26;104542;1260;96826;-74
2023/11/28 02:10:53;;;;;;;51.00;25.20;;;;;;;-2.10;71.36;97452.35;105436;1260;109418;-74
2023/11/28 02:13:21;;;;;;;46.20;22.70;;;;;;;-2.09;71.68;97446.38;105189;1260;97960;-73
2023/11/28 02:15:50;;;;;;;48.70;25.40;;;;;;;-2.08;71.63;97433.17;105588;1255;106648;-73
2023/11/28 02:18:17;;;;;;;47.70;24.30;;;;;;;-2.12;71.73;97438.90;105442;1260;96755;-73
2023/11/28 02:20:45;;;;;;;50.00;24.70;;;;;;;-2.16;71.69;97433.67;105115;1261;96748;-74
2023/11/28 02:23:13;;;;;;;45.20;23.50;;;;;;;-2.18;71.87;97429.43;104304;1262;108482;-73
2023/11/28 02:25:49;;;;;;;48.60;24.10;;;;;;;-2.20;71.57;97430.23;104433;1260;97237;-74
2023/11/28 02:28:18;;;;;;;45.10;22.00;;;;;;;-2.22;71.77;97428.41;106040;1255;105586;-75
2023/11/28 02:30:52;;;;;;;47.20;22.60;;;;;;;-2.21;71.68;97429.77;105590;1260;96698;-73
2023/11/28 02:33:20;;;;;;;44.70;22.50;;;;;;;-2.21;71.81;97423.83;105499;1259;96621;-73
2023/11/28 02:35:48;;;;;;;52.40;23.70;;;;;;;-2.24;71.68;97418.95;105751;1256;109545;-75
2023/11/28 02:38:16;;;;;;;44.70;24.90;;;;;;;-2.23;71.95;97411.13;105333;1260;96617;-73
2023/11/28 02:40:44;;;;;;;43.30;21.90;;;;;;;-2.25;71.82;97411.38;104356;1261;107809;-74
2023/11/28 02:43:16;;;;;;;44.50;21.20;;;;;;;-2.24;71.90;97401.23;104597;1255;97903;-74
2023/11/28 02:45:45;;;;;;;43.10;21.70;;;;;;;-2.22;71.83;97401.85;105078;1261;96534;-74
2023/11/28 02:48:12;;;;;;;42.30;20.50;;;;;;;-2.22;71.88;97395.77;105928;1259;110569;-75
2023/11/28 02:50:40;;;;;;;41.70;21.50;;;;;;;-2.20;71.94;97394.48;107052;1255;94914;-75
2023/11/28 02:53:08;;;;;;;45.30;22.10;;;;;;;-2.20;71.74;97392.17;105518;1256;106979;-74
2023/11/28 02:55:36;;;;;;;43.50;21.70;;;;;;;-2.23;72.08;97392.00;105361;1255;97941;-74
2023/11/28 02:58:04;;;;;;;43.00;21.30;;;;;;;-2.26;71.83;97388.13;105310;1256;97868;-74
2023/11/28 03:00:32;;;;;;;44.30;20.60;;;;;;;-2.26;72.03;97383.27;105553;1260;109647;-75
2023/11/28 03:03:00;;;;;;;45.10;23.30;;;;;;;-2.25;71.80;97388.09;105405;1260;98021;-73
2023/11/28 03:05:31;;;;;;;43.00;21.90;;;;;;;-2.23;72.13;97384.19;105656;1256;107617;-74
2023/11/28 03:07:59;;;;;;;48.50;22.00;;;;;;;-2.22;72.29;97371.81;105287;1260;96586;-75
2023/11/28 03:10:26;;;;;;;42.70;22.10;;;;;;;-2.22;71.87;97373.00;105315;1258;96887;-75
2023/11/28 03:12:54;;;;;;;41.70;21.00;;;;;;;-2.18;72.00;97370.93;105706;1261;109950;-75
2023/11/28 03:15:23;;;;;;;45.20;22.90;;;;;;;-2.19;72.02;97363.14;105177;1260;96589;-74
2023/11/28 03:17:50;;;;;;;40.70;21.80;;;;;;;-2.20;72.26;97359.05;105517;1261;107204;-75
2023/11/28 03:20:18;;;;;;;45.90;22.20;;;;;;;-2.21;72.35;97354.90;105504;1260;96733;-74
2023/11/28 03:22:46;;;;;;;44.00;22.70;;;;;;;-2.22;72.25;97350.96;105260;1261;96932;-75
2023/11/28 03:25:14;;;;;;;43.50;22.50;;;;;;;-2.21;72.23;97345.02;105023;1260;109493;-74
2023/11/28 03:27:42;;;;;;;41.60;20.60;;;;;;;-2.21;72.39;97336.51;105847;1260;96590;-75
2023/11/28 03:30:10;;;;;;;44.30;22.30;;;;;;;-2.22;72.45;97333.27;105338;1258;107816;-75
2023/11/28 03:32:38;;;;;;;40.90;20.50;;;;;;;-2.22;72.52;97329.27;105466;1260;96615;-75
2023/11/28 03:35:07;;;;;;;44.50;21.10;;;;;;;-2.21;72.68;97331.63;105472;1260;96659;-74
2023/11/28 03:37:35;;;;;;;37.40;19.70;;;;;;;-2.22;72.75;97329.63;105690;1261;109022;-75
2023/11/28 03:40:03;;;;;;;40.70;21.30;;;;;;;-2.22;72.51;97325.48;104941;1260;96698;-75
2023/11/28 03:42:31;;;;;;;45.40;22.80;;;;;;;-2.23;72.74;97319.23;106248;1259;107689;-75
2023/11/28 03:44:58;;;;;;;38.00;18.90;;;;;;;-2.20;72.80;97317.02;105780;1261;96657;-74
2023/11/28 03:47:26;;;;;;;39.10;20.60;;;;;;;-2.17;72.27;97310.75;105455;1255;97853;-74
2023/11/28 03:49:54;;;;;;;38.20;19.90;;;;;;;-2.14;72.70;97309.06;105508;1259;108793;-74
2023/11/28 03:52:22;;;;;;;42.20;21.90;;;;;;;-2.13;72.54;97299.48;105521;1261;96593;-75
2023/11/28 03:54:50;;;;;;;36.30;18.60;;;;;;;-2.14;72.50;97296.54;105500;1261;107048;-74
2023/11/28 03:57:17;;;;;;;40.30;18.90;;;;;;;-2.11;72.75;97292.42;106657;1260;96590;-73
2023/11/28 03:59:45;;;;;;;35.40;17.50;;;;;;;-2.09;72.85;97289.02;104662;1260;96576;-74
2023/11/28 04:02:13;;;;;;;35.00;18.50;;;;;;;-2.05;72.86;97293.54;105608;1256;109955;-74
2023/11/28 04:04:41;;;;;;;35.50;18.00;;;;;;;-2.08;72.70;97290.23;104318;1261;96521;-74
2023/11/28 04:07:09;;;;;;;36.10;17.10;;;;;;;-2.07;72.84;97291.02;104826;1260;107625;-74
2023/11/28 04:09:37;;;;;;;32.30;17.10;;;;;;;-2.05;72.99;97286.60;105115;1260;96579;-75
2023/11/28 04:12:05;;;;;;;34.10;17.00;;;;;;;-2.03;72.91;97282.67;106138;1260;96518;-75
2023/11/28 04:14:33;;;;;;;34.20;17.60;;;;;;;-2.02;72.68;97275.98;105487;1260;109453;-74
2023/11/28 04:17:01;;;;;;;31.10;15.60;;;;;;;-2.01;72.71;97274.58;105228;1261;96691;-74
2023/11/28 04:19:29;;;;;;;31.30;15.90;;;;;;;-2.00;72.78;97270.15;105154;1264;107199;-74
2023/11/28 04:21:57;;;;;;;33.70;16.60;;;;;;;-1.99;72.76;97266.63;105047;1262;96650;-74
2023/11/28 04:24:25;;;;;;;31.90;14.70;;;;;;;-1.99;72.93;97264.92;105744;1260;140029;-75
2023/11/28 04:26:52;;;;;;;31.50;15.80;;;;;;;-1.97;72.87;97259.59;106142;1260;109866;-74
2023/11/28 04:29:20;;;;;;;29.70;15.20;;;;;;;-1.96;73.35;97256.93;105000;1262;96626;-74
2023/11/28 04:31:48;;;;;;;32.50;14.90;;;;;;;-1.97;72.82;97254.87;106879;1260;107571;-75
2023/11/28 04:34:16;;;;;;;31.50;15.70;;;;;;;-1.95;73.12;97252.55;105511;1257;96679;-75
2023/11/28 04:36:44;;;;;;;33.40;16.70;;;;;;;-1.95;73.36;97247.33;104991;1261;96684;-74
2023/11/28 04:39:12;;;;;;;33.70;16.20;;;;;;;-1.96;73.17;97240.95;104918;1261;109508;-74
2023/11/28 04:41:40;;;;;;;30.10;15.70;;;;;;;-1.98;73.30;97236.54;107018;1259;96957;-74
2023/11/28 04:44:08;;;;;;;29.80;14.90;;;;;;;-1.99;73.19;97229.29;104857;1258;105798;-75
2023/11/28 04:46:36;;;;;;;32.70;15.80;;;;;;;-1.96;73.31;97224.95;106920;1255;96589;-75
2023/11/28 04:49:04;;;;;;;28.60;15.30;;;;;;;-1.93;73.16;97218.73;107133;1256;96523;-74
2023/11/28 04:51:32;;;;;;;30.50;16.00;;;;;;;-1.91;73.32;97216.54;104901;1260;109996;-74
2023/11/28 04:54:00;;;;;;;29.30;15.10;;;;;;;-1.91;73.14;97217.98;105340;1261;96629;-74
2023/11/28 04:56:28;;;;;;;31.60;14.80;;;;;;;-1.92;73.27;97217.33;105515;1260;108282;-75
2023/11/28 04:58:55;;;;;;;31.90;17.00;;;;;;;-1.93;73.44;97209.72;105901;1261;96583;-74
2023/11/28 05:01:24;;;;;;;31.50;16.40;;;;;;;-1.93;73.16;97205.20;105446;1258;96590;-74
2023/11/28 05:03:52;;;;;;;31.20;15.90;;;;;;;-1.92;73.42;97198.89;104961;1261;109887;-80
2023/11/28 05:06:20;;;;;;;30.50;15.40;;;;;;;-1.90;73.14;97193.26;105216;1260;96667;-76
2023/11/28 05:08:48;;;;;;;31.70;15.50;;;;;;;-1.89;73.30;97189.71;105428;1261;107954;-74
2023/11/28 05:11:15;;;;;;;29.60;14.30;;;;;;;-1.90;73.40;97182.98;105127;1262;96662;-73
2023/11/28 05:13:43;;;;;;;31.10;14.90;;;;;;;-1.89;73.37;97181.04;105056;1259;96513;-77
2023/11/28 05:16:11;;;;;;;29.00;14.20;;;;;;;-1.91;73.80;97175.91;104481;1260;108034;-74
2023/11/28 05:18:39;;;;;;;30.70;14.50;;;;;;;-1.92;73.47;97175.25;108334;1255;95839;-76
2023/11/28 05:21:08;;;;;;;29.80;14.40;;;;;;;-1.91;73.60;97171.55;108363;1255;107508;-74
2023/11/28 05:23:39;;;;;;;28.10;13.80;;;;;;;-1.89;73.38;97169.38;108361;1255;94598;-74
2023/11/28 05:26:07;;;;;;;28.90;13.00;;;;;;;-1.85;73.37;97160.30;108424;1256;95038;-75
2023/11/28 05:28:35;;;;;;;26.10;12.70;;;;;;;-1.83;73.31;97156.05;108402;1255;109447;-74
2023/11/28 05:31:03;;;;;;;26.90;12.90;;;;;;;-1.82;73.52;97151.09;105473;1260;97909;-77
2023/11/28 05:33:31;;;;;;;29.00;14.70;;;;;;;-1.82;73.50;97147.12;105326;1256;105906;-75
2023/11/28 05:35:58;;;;;;;27.90;14.00;;;;;;;-1.85;73.79;97145.86;108295;1255;94717;-77
2023/11/28 05:38:26;;;;;;;30.80;14.60;;;;;;;-1.88;73.80;97142.23;108413;1255;94603;-76
2023/11/28 05:40:54;;;;;;;25.60;12.30;;;;;;;-1.89;73.76;97136.20;108324;1255;109929;-76
2023/11/28 05:43:22;;;;;;;26.20;12.00;;;;;;;-1.87;73.46;97126.89;108400;1260;94841;-76
2023/11/28 05:45:50;;;;;;;29.50;14.40;;;;;;;-1.84;73.73;97121.64;108377;1255;107626;-76
2023/11/28 05:48:18;;;;;;;28.50;13.80;;;;;;;-1.84;73.61;97115.40;106623;1260;96561;-77
2023/11/28 05:50:46;;;;;;;29.10;13.90;;;;;;;-1.83;73.69;97112.23;105379;1261;96607;-75
2023/11/28 05:53:15;;;;;;;29.90;13.70;;;;;;;-1.82;73.78;97113.90;105738;1260;110072;-75
2023/11/28 05:56:34;;;;;;;26.40;13.70;;;;;;;-1.80;73.94;97111.19;105442;1261;96598;-87
2023/11/28 06:03:58;;;;;;;30.50;15.30;;;;;;;-1.71;74.11;97107.08;105516;1267;96727;-81
2023/11/28 06:06:26;;;;;;;28.00;14.00;;;;;;;-1.70;74.17;97108.44;106342;1255;96541;-87
2023/11/28 06:09:17;;;;;;;26.60;13.70;;;;;;;-1.69;74.05;97109.05;106253;1266;109235;-83
2023/11/28 06:12:41;;;;;;;;;;;;;;;;;;;;;
2023/11/28 06:15:41;;;;;;;27.00;13.10;;;;;;;-1.68;74.01;97107.28;107332;1260;110054;-78
2023/11/28 06:18:17;;;;;;;28.60;13.90;;;;;;;-1.66;74.18;97105.27;105154;1260;96525;-77
2023/11/28 06:20:45;;;;;;;29.10;15.30;;;;;;;-1.64;73.87;97104.10;107335;1260;96554;-78
2023/11/28 06:23:20;;;;;;;30.80;15.50;;;;;;;-1.63;74.16;97101.80;105687;1260;110333;-75
2023/11/28 06:25:48;;;;;;;31.20;15.50;;;;;;;-1.63;74.08;97097.96;105562;1258;96587;-75
2023/11/28 06:28:20;;;;;;;29.40;14.30;;;;;;;-1.63;74.34;97093.77;106302;1260;107583;-76
2023/11/28 06:30:48;;;;;;;27.50;13.30;;;;;;;-1.63;74.21;97093.10;104954;1262;96603;-74
2023/11/28 06:33:16;;;;;;;27.70;13.50;;;;;;;-1.60;74.30;97093.81;105439;1260;97417;-81
2023/11/28 06:35:52;;;;;;;27.60;13.60;;;;;;;-1.61;74.17;97090.37;105002;1261;110117;-79
2023/11/28 06:38:44;;;;;;;27.60;13.20;;;;;;;-1.60;74.25;97088.73;105413;1261;96648;-79
2023/11/28 06:41:24;;;;;;;27.50;13.20;;;;;;;-1.56;74.44;97081.23;105317;1259;107455;-77
2023/11/28 06:59:43;;;;;;;28.00;14.40;;;;;;;-0.99;73.42;97064.30;106159;1257;649233;-77
2023/11/28 07:02:10;;;;;;;28.10;14.40;;;;;;;-0.96;73.80;97058.70;106679;1228;3355366;-78
2023/11/28 07:04:37;;;;;;;28.70;14.00;;;;;;;-1.02;73.97;97057.14;108588;1234;94285;-75
2023/11/28 07:07:03;;;;;;;28.00;13.70;;;;;;;-1.08;74.22;97052.48;108902;1229;94358;-76
2023/11/28 07:09:30;;;;;;;27.10;13.20;;;;;;;-1.10;74.25;97053.98;110616;1231;94342;-75
2023/11/28 07:12:58;;;;;;;28.00;12.80;;;;;;;-1.11;74.46;97049.84;108820;1228;94355;-85
2023/11/28 07:15:37;;;;;;;;;;;;;;;;;;;;;
2023/11/28 07:18:08;;;;;;;28.40;14.80;;;;;;;-1.15;74.58;97047.33;108473;1244;107198;-79
2023/11/28 07:21:18;;;;;;;25.40;12.30;;;;;;;-1.15;74.58;97041.76;109125;1233;96038;-80
2023/11/28 07:23:49;;;;;;;26.80;13.50;;;;;;;-1.16;74.59;97035.02;108658;1238;107606;-73
2023/11/28 07:26:42;;;;;;;;;;;;;;;;;;;;;
2023/11/28 07:30:44;;;;;;;;;;;;;;;;;;;;;
2023/11/28 07:34:13;;;;;;;31.00;14.90;;;;;;;-1.21;74.96;97039.48;108913;1234;109539;-76
2023/11/28 07:36:43;;;;;;;30.30;13.70;;;;;;;-1.23;74.61;97039.23;108719;1234;95294;-77
2023/11/28 07:39:18;;;;;;;30.80;14.60;;;;;;;-1.25;74.77;97034.83;108884;1228;106795;-82
2023/11/28 07:41:48;;;;;;;28.50;13.80;;;;;;;-1.24;74.67;97035.12;109050;1234;95196;-77
2023/11/28 07:48:42;;;;;;;28.10;13.80;;;;;;;-1.22;75.01;97031.14;107931;1241;108102;-78
2023/11/28 07:51:41;;;;;;;28.90;14.20;;;;;;;-1.19;74.79;97024.04;108495;1236;96358;-78
2023/11/28 07:55:02;;;;;;;30.80;15.50;;;;;;;-1.15;74.86;97027.48;108670;1229;95215;-80
2023/11/28 07:57:58;;;;;;;29.60;13.70;;;;;;;-1.17;74.92;97015.79;108985;1236;95282;-80
2023/11/28 08:00:25;;;;;;;26.80;13.90;;;;;;;-1.11;74.98;97017.31;108609;1236;95309;-76
2023/11/28 08:02:52;;;;;;;28.30;14.30;;;;;;;-1.15;75.16;97010.26;108476;1236;96118;-78
2023/11/28 08:05:41;;;;;;;27.80;14.40;;;;;;;-1.08;74.93;97015.73;108497;1229;96009;-83
2023/11/28 08:08:11;;;;;;;27.90;13.50;;;;;;;-1.06;75.04;97015.08;108226;1240;107221;-78
2023/11/28 08:10:40;;;;;;;28.40;13.50;;;;;;;-1.01;75.19;97013.10;108575;1233;95223;-78
2023/11/28 08:13:11;;;;;;;28.10;14.80;;;;;;;-0.97;75.16;97007.45;108761;1234;95154;-79
2023/11/28 08:19:33;;;;;;;28.40;13.50;;;;;;;-0.93;75.07;97005.98;110111;1232;95495;-75
2023/11/28 08:21:59;;;;;;;27.30;13.60;;;;;;;-0.89;75.09;97001.56;109143;1234;95141;-76
2023/11/28 08:24:26;;;;;;;28.00;14.00;;;;;;;-0.84;75.04;97000.64;109966;1233;95293;-72
2023/11/28 08:27:25;;;;;;;28.70;14.50;;;;;;;-0.81;75.01;97003.41;108817;1233;95325;-77
2023/11/28 08:29:52;;;;;;;27.20;13.70;;;;;;;-0.79;75.17;97003.27;109098;1233;107829;-76
2023/11/28 08:32:18;;;;;;;27.60;13.20;;;;;;;-0.79;75.14;97002.88;108595;1235;95200;-71
2023/11/28 08:34:45;;;;;;;30.40;15.30;;;;;;;-0.77;75.11;97001.73;111165;1230;95255;-74
2023/11/28 08:37:15;;;;;;;29.40;14.30;;;;;;;-0.79;75.03;97001.35;108734;1242;95282;-74
2023/11/28 08:39:41;;;;;;;29.60;15.50;;;;;;;-0.81;75.21;97000.39;109966;1231;95200;-74
2023/11/28 08:42:08;;;;;;;30.50;14.60;;;;;;;-0.77;75.24;96999.63;109000;1231;95464;-73
2023/11/28 08:44:35;;;;;;;32.30;15.20;;;;;;;-0.74;75.19;96995.82;108834;1234;95218;-73
2023/11/28 08:47:01;;;;;;;28.90;14.50;;;;;;;-0.69;75.27;96988.59;109412;1233;95286;-74
2023/11/28 08:49:28;;;;;;;29.60;14.80;;;;;;;-0.66;75.30;96985.76;108873;1235;95155;-74
2023/11/28 08:51:55;;;;;;;29.10;14.60;;;;;;;-0.61;75.40;96986.02;111786;1229;92913;-71
2023/11/28 08:54:21;;;;;;;29.60;14.40;;;;;;;-0.59;75.49;96987.25;109985;1233;95216;-77
2023/11/28 08:56:48;;;;;;;29.30;14.70;;;;;;;-0.56;75.32;96978.73;108615;1235;96141;-76
2023/11/28 08:59:14;;;;;;;28.40;14.00;;;;;;;-0.56;75.43;96972.98;108770;1231;95247;-76
2023/11/28 09:01:41;;;;;;;28.80;14.10;;;;;;;-0.54;75.19;96969.41;108825;1234;95321;-76
2023/11/28 09:04:07;;;;;;;29.30;15.20;;;;;;;-0.52;75.35;96966.11;108843;1233;95846;-75
2023/11/28 09:06:34;;;;;;;28.30;14.40;;;;;;;-0.50;75.44;96958.85;108642;1242;106465;-76
2023/11/28 09:09:00;;;;;;;27.40;14.20;;;;;;;-0.51;75.35;96951.96;108741;1234;95981;-73
2023/11/28 09:11:27;;;;;;;29.50;14.00;;;;;;;-0.49;75.42;96947.47;108955;1231;95204;-79
2023/11/28 09:13:54;;;;;;;26.10;13.40;;;;;;;-0.47;75.39;96944.23;110046;1232;95198;-75
2023/11/28 09:16:21;;;;;;;29.90;14.80;;;;;;;-0.46;75.32;96939.85;108861;1242;96118;-76
2023/11/28 09:18:47;;;;;;;30.00;15.20;;;;;;;-0.43;75.61;96938.28;108490;1234;96137;-74
2023/11/28 09:21:21;;;;;;;25.70;12.70;;;;;;;-0.44;75.44;96938.69;109325;1234;95121;-77
2023/11/28 09:23:48;;;;;;;26.50;13.10;;;;;;;-0.43;75.56;96933.05;109123;1233;95221;-72
2023/11/28 09:26:14;;;;;;;29.10;14.90;;;;;;;-0.42;75.61;96925.00;108435;1237;95301;-79
2023/11/28 09:28:41;;;;;;;26.70;13.40;;;;;;;-0.41;75.51;96920.70;110402;1231;95912;-78
2023/11/28 09:31:07;;;;;;;29.30;14.20;;;;;;;-0.36;75.84;96918.68;108645;1231;95199;-79
2023/11/28 09:33:35;;;;;;;26.60;14.10;;;;;;;-0.33;75.56;96917.77;110055;1231;108480;-79
2023/11/28 09:36:04;;;;;;;28.00;14.00;;;;;;;-0.29;75.49;96914.05;110067;1236;95295;-80
2023/11/28 09:38:34;;;;;;;30.30;13.40;;;;;;;-0.27;75.63;96906.98;108536;1234;107149;-81
2023/11/28 09:41:00;;;;;;;26.00;12.90;;;;;;;-0.25;75.47;96906.32;108558;1234;95183;-88
2023/11/28 09:43:28;;;;;;;26.90;12.40;;;;;;;-0.23;75.44;96906.90;108586;1242;95260;-85
2023/11/28 09:46:04;;;;;;;29.60;13.40;;;;;;;-0.21;75.62;96901.66;109024;1234;108336;-86
2023/11/28 09:48:32;;;;;;;29.70;14.40;;;;;;;-0.20;75.58;96902.65;108770;1233;95221;-87
2023/11/28 09:51:00;;;;;;;26.10;13.30;;;;;;;-0.20;75.68;96894.86;109071;1233;106457;-88
2023/11/28 09:53:28;;;;;;;29.10;13.20;;;;;;;-0.18;75.70;96891.42;108761;1234;96032;-85
2023/11/28 09:56:01;;;;;;;28.80;13.70;;;;;;;-0.13;75.79;96887.99;109747;1233;95218;-88
2023/11/28 09:58:29;;;;;;;26.20;13.40;;;;;;;-0.12;75.60;96878.48;109141;1240;107290;-81
2023/11/28 10:04:22;;;;;;;26.70;12.90;;;;;;;0.04;75.84;96864.36;109310;1234;107512;-79
2023/11/28 10:06:53;;;;;;;25.80;13.00;;;;;;;0.11;75.84;96859.40;109575;1236;95354;-80
2023/11/28 10:10:25;;;;;;;24.40;12.10;;;;;;;0.20;75.75;96851.35;109724;1236;95246;-80
2023/11/28 10:13:08;;;;;;;;;;;;;;;;;;;;;
2023/11/28 10:16:00;;;;;;;;;;;;;;;;;;;;;
2023/11/28 10:18:52;;;;;;;25.50;13.50;;;;;;;0.36;75.79;96845.94;108738;1232;107974;-79
2023/11/28 10:21:43;;;;;;;27.70;12.40;;;;;;;0.41;75.80;96838.11;108603;1231;95226;-79
2023/11/28 10:24:30;;;;;;;25.50;12.40;;;;;;;0.40;75.96;96829.63;109111;1232;95213;-79
2023/11/28 10:27:46;;;;;;;25.90;12.90;;;;;;;0.39;75.77;96824.45;109247;1234;108027;-80
2023/11/28 10:30:42;;;;;;;24.50;11.40;;;;;;;0.40;75.80;96818.08;109299;1234;95553;-79
2023/11/28 10:33:17;;;;;;;24.50;11.50;;;;;;;0.45;75.78;96811.34;109015;1236;107871;-79
2023/11/28 10:36:01;;;;;;;24.40;12.70;;;;;;;0.47;75.71;96811.36;109617;1231;95126;-79
2023/11/28 10:39:15;;;;;;;24.10;11.50;;;;;;;0.44;75.80;96804.75;109382;1233;96079;-80
2023/11/28 10:42:22;;;;;;;23.20;11.70;;;;;;;0.44;75.58;96804.59;108570;1233;108332;-79
2023/11/28 10:45:12;;;;;;;22.50;11.10;;;;;;;0.43;75.69;96804.73;108532;1234;95383;-82
2023/11/28 10:47:44;;;;;;;24.60;12.20;;;;;;;0.45;75.91;96801.02;108974;1233;107477;-80
2023/11/28 10:50:34;;;;;;;26.40;12.40;;;;;;;0.48;75.81;96793.98;108738;1236;95318;-79
2023/11/28 10:53:05;;;;;;;25.40;12.90;;;;;;;0.52;76.01;96788.31;109742;1234;95260;-82
2023/11/28 10:55:41;;;;;;;25.00;11.60;;;;;;;0.56;75.84;96787.23;109104;1234;108513;-82
2023/11/28 10:58:15;;;;;;;23.80;11.30;;;;;;;0.56;76.02;96782.30;109236;1237;95520;-84
2023/11/28 11:00:46;;;;;;;22.90;11.10;;;;;;;0.55;75.86;96776.64;109829;1232;108105;-82
2023/11/28 11:03:16;;;;;;;24.40;12.40;;;;;;;0.56;75.92;96781.61;108684;1237;95148;-87
2023/11/28 11:05:44;;;;;;;22.40;10.70;;;;;;;0.53;75.85;96777.42;108873;1234;95215;-84
2023/11/28 11:08:13;;;;;;;26.70;12.50;;;;;;;0.51;75.84;96775.48;108841;1234;109533;-87
2023/11/28 11:10:41;;;;;;;27.60;13.60;;;;;;;0.49;75.88;96775.79;108841;1234;95258;-86
2023/11/28 11:13:23;;;;;;;24.50;11.90;;;;;;;0.48;75.88;96770.29;108816;1244;105765;-78
2023/11/28 11:16:15;;;;;;;23.90;11.90;;;;;;;0.49;76.06;96772.67;108799;1235;95198;-79
2023/11/28 11:18:48;;;;;;;24.50;11.70;;;;;;;0.48;76.02;96770.27;108954;1236;95091;-79
2023/11/28 11:21:26;;;;;;;25.90;12.60;;;;;;;0.49;75.87;96764.50;108789;1244;108843;-81
2023/11/28 11:23:54;;;;;;;26.00;12.30;;;;;;;0.52;75.99;96761.83;109052;1237;96125;-80
2023/11/28 11:26:34;;;;;;;24.80;12.20;;;;;;;0.52;76.04;96765.48;108709;1235;107942;-81
2023/11/28 11:29:18;;;;;;;24.60;12.50;;;;;;;0.53;76.05;96758.77;108766;1232;96554;-79
2023/11/28 11:31:49;;;;;;;25.20;12.20;;;;;;;0.53;76.23;96758.64;108975;1241;97562;-76
2023/11/28 11:34:43;;;;;;;25.10;13.30;;;;;;;0.48;76.00;96756.70;108631;1235;109639;-75
2023/11/28 11:37:13;;;;;;;24.70;12.00;;;;;;;0.48;76.29;96755.48;108748;1234;96554;-81
2023/11/28 11:39:44;;;;;;;25.60;11.80;;;;;;;0.48;76.17;96757.56;109462;1234;107547;-80
2023/11/28 11:42:34;;;;;;;25.80;13.00;;;;;;;0.48;76.30;96758.10;109445;1234;96669;-81
2023/11/28 11:45:07;;;;;;;26.50;12.30;;;;;;;0.48;76.28;96755.11;108583;1234;97694;-76
2023/11/28 11:47:37;;;;;;;26.30;13.40;;;;;;;0.50;76.22;96746.31;108816;1234;110357;-85
2023/11/28 11:50:07;;;;;;;24.90;13.00;;;;;;;0.49;76.13;96747.41;108903;1235;96614;-85
2023/11/28 11:52:35;;;;;;;23.80;12.40;;;;;;;0.47;76.18;96751.70;109092;1234;108177;-78
2023/11/28 11:55:13;;;;;;;25.30;12.10;;;;;;;0.48;76.21;96755.83;108515;1238;96515;-78
2023/11/28 12:39:17;;;;;;;26.20;12.90;;;;;;;0.49;76.20;96732.54;105499;1268;96608;-79
2023/11/28 12:42:38;;;;;;;27.60;14.10;;;;;;;0.49;76.42;96730.15;106743;1257;96738;-79
2023/11/28 12:45:40;;;;;;;26.90;12.80;;;;;;;0.44;76.27;96731.88;107613;1244;109943;-80
2023/11/28 12:48:54;;;;;;;29.10;14.40;;;;;;;0.42;76.27;96721.35;108593;1234;96655;-80
2023/11/28 12:51:31;;;;;;;26.60;13.90;;;;;;;0.45;76.49;96727.24;108614;1244;107501;-80
2023/11/28 12:54:11;;;;;;;27.70;14.20;;;;;;;0.45;76.47;96733.55;109221;1236;97504;-78
2023/11/28 12:56:53;;;;;;;28.80;15.90;;;;;;;0.43;76.30;96736.79;109557;1234;96573;-78
2023/11/28 12:59:26;;;;;;;32.50;17.20;;;;;;;0.42;76.33;96738.40;108416;1237;109310;-76